sensor_id;sensor_type;location;lat;lon;timestamp;P1;durP1;ratioP1;P2;durP2;ratioP2
65871;SDS011;52653;50.080;21.992;2024-01-30T00:02:14;37.40;;;24.10;;
65871;SDS011;52653;50.080;21.992;2024-01-30T00:04:47;36.40;;;22.90;;
65871;SDS011;52653;50.080;21.992;2024-01-30T00:07:29;35.10;;;22.40;;
65871;SDS011;52653;50.080;21.992;2024-01-30T00:10:05;26.70;;;17.20;;
65871;SDS011;52653;50.080;21.992;2024-01-30T00:12:38;22.40;;;13.40;;
65871;SDS011;52653;50.080;21.992;2024-01-30T00:15:11;19.40;;;11.70;;
65871;SDS011;52653;50.080;21.992;2024-01-30T00:17:44;17.40;;;10.40;;
65871;SDS011;52653;50.080;21.992;2024-01-30T00:20:21;17.40;;;10.50;;
65871;SDS011;52653;50.080;21.992;2024-01-30T00:22:54;14.90;;;9.10;;
65871;SDS011;52653;50.080;21.992;2024-01-30T00:25:26;15.80;;;8.90;;
65871;SDS011;52653;50.080;21.992;2024-01-30T00:27:58;12.80;;;7.90;;
65871;SDS011;52653;50.080;21.992;2024-01-30T00:30:31;12.90;;;8.30;;
65871;SDS011;52653;50.080;21.992;2024-01-30T00:33:03;12.90;;;8.00;;
65871;SDS011;52653;50.080;21.992;2024-01-30T00:35:37;12.90;;;8.20;;
65871;SDS011;52653;50.080;21.992;2024-01-30T00:38:11;12.30;;;7.30;;
65871;SDS011;52653;50.080;21.992;2024-01-30T00:40:44;13.10;;;7.70;;
65871;SDS011;52653;50.080;21.992;2024-01-30T00:43:16;13.40;;;7.70;;
65871;SDS011;52653;50.080;21.992;2024-01-30T00:45:50;11.50;;;6.70;;
65871;SDS011;52653;50.080;21.992;2024-01-30T00:48:23;11.20;;;6.20;;
65871;SDS011;52653;50.080;21.992;2024-01-30T00:50:55;10.30;;;6.00;;
65871;SDS011;52653;50.080;21.992;2024-01-30T00:53:28;10.50;;;6.20;;
65871;SDS011;52653;50.080;21.992;2024-01-30T00:56:01;11.60;;;6.40;;
65871;SDS011;52653;50.080;21.992;2024-01-30T00:58:33;10.70;;;5.90;;
65871;SDS011;52653;50.080;21.992;2024-01-30T01:01:06;11.10;;;6.30;;
65871;SDS011;52653;50.080;21.992;2024-01-30T01:03:38;11.40;;;6.50;;
65871;SDS011;52653;50.080;21.992;2024-01-30T01:06:13;9.70;;;5.90;;
65871;SDS011;52653;50.080;21.992;2024-01-30T01:08:46;10.20;;;5.70;;
65871;SDS011;52653;50.080;21.992;2024-01-30T01:11:23;10.40;;;6.00;;
65871;SDS011;52653;50.080;21.992;2024-01-30T01:13:55;10.40;;;5.40;;
65871;SDS011;52653;50.080;21.992;2024-01-30T01:16:28;10.70;;;5.70;;
65871;SDS011;52653;50.080;21.992;2024-01-30T01:19:03;9.90;;;5.80;;
65871;SDS011;52653;50.080;21.992;2024-01-30T01:21:36;10.00;;;5.70;;
65871;SDS011;52653;50.080;21.992;2024-01-30T01:24:08;9.20;;;5.70;;
65871;SDS011;52653;50.080;21.992;2024-01-30T01:26:41;12.00;;;6.20;;
65871;SDS011;52653;50.080;21.992;2024-01-30T01:29:14;10.70;;;5.80;;
65871;SDS011;52653;50.080;21.992;2024-01-30T01:31:46;13.00;;;6.80;;
65871;SDS011;52653;50.080;21.992;2024-01-30T01:34:18;10.70;;;6.30;;
65871;SDS011;52653;50.080;21.992;2024-01-30T01:36:51;11.30;;;6.20;;
65871;SDS011;52653;50.080;21.992;2024-01-30T01:39:26;9.80;;;6.10;;
65871;SDS011;52653;50.080;21.992;2024-01-30T01:41:58;12.60;;;6.50;;
65871;SDS011;52653;50.080;21.992;2024-01-30T01:44:31;10.10;;;6.30;;
65871;SDS011;52653;50.080;21.992;2024-01-30T01:47:05;13.20;;;6.60;;
65871;SDS011;52653;50.080;21.992;2024-01-30T01:49:38;12.10;;;6.10;;
65871;SDS011;52653;50.080;21.992;2024-01-30T01:52:11;10.80;;;7.00;;
65871;SDS011;52653;50.080;21.992;2024-01-30T01:54:44;11.90;;;6.80;;
65871;SDS011;52653;50.080;21.992;2024-01-30T01:57:16;10.40;;;6.10;;
65871;SDS011;52653;50.080;21.992;2024-01-30T01:59:49;12.50;;;6.90;;
65871;SDS011;52653;50.080;21.992;2024-01-30T02:02:22;11.80;;;7.00;;
65871;SDS011;52653;50.080;21.992;2024-01-30T02:04:57;12.30;;;7.10;;
65871;SDS011;52653;50.080;21.992;2024-01-30T02:07:30;11.30;;;6.90;;
65871;SDS011;52653;50.080;21.992;2024-01-30T02:10:02;10.90;;;6.60;;
65871;SDS011;52653;50.080;21.992;2024-01-30T02:12:38;10.70;;;6.40;;
65871;SDS011;52653;50.080;21.992;2024-01-30T02:15:12;9.90;;;6.30;;
65871;SDS011;52653;50.080;21.992;2024-01-30T02:17:45;10.50;;;6.60;;
65871;SDS011;52653;50.080;21.992;2024-01-30T02:20:19;10.10;;;6.30;;
65871;SDS011;52653;50.080;21.992;2024-01-30T02:22:53;10.90;;;6.30;;
65871;SDS011;52653;50.080;21.992;2024-01-30T02:25:31;9.80;;;5.60;;
65871;SDS011;52653;50.080;21.992;2024-01-30T02:28:13;12.30;;;6.30;;
65871;SDS011;52653;50.080;21.992;2024-01-30T02:30:46;9.40;;;5.90;;
65871;SDS011;52653;50.080;21.992;2024-01-30T02:33:20;9.20;;;5.80;;
65871;SDS011;52653;50.080;21.992;2024-01-30T02:35:52;11.40;;;6.40;;
65871;SDS011;52653;50.080;21.992;2024-01-30T02:38:24;9.30;;;5.70;;
65871;SDS011;52653;50.080;21.992;2024-01-30T02:40:58;10.10;;;5.70;;
65871;SDS011;52653;50.080;21.992;2024-01-30T02:43:30;10.00;;;6.10;;
65871;SDS011;52653;50.080;21.992;2024-01-30T02:46:02;9.50;;;6.00;;
65871;SDS011;52653;50.080;21.992;2024-01-30T02:48:39;10.10;;;6.50;;
65871;SDS011;52653;50.080;21.992;2024-01-30T02:51:11;11.70;;;6.60;;
65871;SDS011;52653;50.080;21.992;2024-01-30T02:53:44;9.60;;;6.20;;
65871;SDS011;52653;50.080;21.992;2024-01-30T02:56:17;10.10;;;6.10;;
65871;SDS011;52653;50.080;21.992;2024-01-30T02:58:50;10.10;;;6.70;;
65871;SDS011;52653;50.080;21.992;2024-01-30T03:01:26;11.00;;;7.20;;
65871;SDS011;52653;50.080;21.992;2024-01-30T03:03:59;10.90;;;6.40;;
65871;SDS011;52653;50.080;21.992;2024-01-30T03:06:32;11.70;;;6.60;;
65871;SDS011;52653;50.080;21.992;2024-01-30T03:09:04;12.90;;;7.70;;
65871;SDS011;52653;50.080;21.992;2024-01-30T03:11:40;12.90;;;6.70;;
65871;SDS011;52653;50.080;21.992;2024-01-30T03:14:14;12.50;;;7.20;;
65871;SDS011;52653;50.080;21.992;2024-01-30T03:16:47;10.20;;;6.60;;
65871;SDS011;52653;50.080;21.992;2024-01-30T03:19:22;9.50;;;6.30;;
65871;SDS011;52653;50.080;21.992;2024-01-30T03:21:55;11.00;;;7.00;;
65871;SDS011;52653;50.080;21.992;2024-01-30T03:24:30;10.90;;;6.30;;
65871;SDS011;52653;50.080;21.992;2024-01-30T03:27:03;12.70;;;7.40;;
65871;SDS011;52653;50.080;21.992;2024-01-30T03:29:38;10.30;;;6.40;;
65871;SDS011;52653;50.080;21.992;2024-01-30T03:32:11;11.10;;;6.70;;
65871;SDS011;52653;50.080;21.992;2024-01-30T03:34:44;10.70;;;6.40;;
65871;SDS011;52653;50.080;21.992;2024-01-30T03:37:19;11.50;;;6.50;;
65871;SDS011;52653;50.080;21.992;2024-01-30T03:39:53;11.20;;;6.30;;
65871;SDS011;52653;50.080;21.992;2024-01-30T03:42:25;10.50;;;6.40;;
65871;SDS011;52653;50.080;21.992;2024-01-30T03:44:58;11.20;;;6.40;;
65871;SDS011;52653;50.080;21.992;2024-01-30T03:47:34;10.80;;;6.90;;
65871;SDS011;52653;50.080;21.992;2024-01-30T03:50:11;11.70;;;6.90;;
65871;SDS011;52653;50.080;21.992;2024-01-30T03:52:44;10.60;;;6.90;;
65871;SDS011;52653;50.080;21.992;2024-01-30T03:55:16;11.10;;;7.00;;
65871;SDS011;52653;50.080;21.992;2024-01-30T03:57:49;10.90;;;7.00;;
65871;SDS011;52653;50.080;21.992;2024-01-30T04:00:22;11.90;;;7.50;;
65871;SDS011;52653;50.080;21.992;2024-01-30T04:02:54;12.50;;;7.50;;
65871;SDS011;52653;50.080;21.992;2024-01-30T04:05:30;11.30;;;7.10;;
65871;SDS011;52653;50.080;21.992;2024-01-30T04:08:02;12.10;;;7.60;;
65871;SDS011;52653;50.080;21.992;2024-01-30T04:10:35;15.30;;;8.40;;
65871;SDS011;52653;50.080;21.992;2024-01-30T04:13:08;15.20;;;8.00;;
65871;SDS011;52653;50.080;21.992;2024-01-30T04:15:41;11.50;;;7.70;;
65871;SDS011;52653;50.080;21.992;2024-01-30T04:18:14;12.10;;;7.70;;
65871;SDS011;52653;50.080;21.992;2024-01-30T04:20:46;13.50;;;8.20;;
65871;SDS011;52653;50.080;21.992;2024-01-30T04:23:19;11.70;;;7.60;;
65871;SDS011;52653;50.080;21.992;2024-01-30T04:25:55;11.60;;;7.40;;
65871;SDS011;52653;50.080;21.992;2024-01-30T04:28:28;12.00;;;7.30;;
65871;SDS011;52653;50.080;21.992;2024-01-30T04:31:04;12.40;;;8.10;;
65871;SDS011;52653;50.080;21.992;2024-01-30T04:33:36;12.50;;;7.70;;
65871;SDS011;52653;50.080;21.992;2024-01-30T04:36:11;11.90;;;7.90;;
65871;SDS011;52653;50.080;21.992;2024-01-30T04:38:43;12.30;;;7.80;;
65871;SDS011;52653;50.080;21.992;2024-01-30T04:41:18;12.40;;;8.10;;
65871;SDS011;52653;50.080;21.992;2024-01-30T04:43:53;14.80;;;8.40;;
65871;SDS011;52653;50.080;21.992;2024-01-30T04:46:25;14.50;;;8.30;;
65871;SDS011;52653;50.080;21.992;2024-01-30T04:48:58;13.10;;;8.30;;
65871;SDS011;52653;50.080;21.992;2024-01-30T04:51:31;13.00;;;8.50;;
65871;SDS011;52653;50.080;21.992;2024-01-30T04:54:04;12.30;;;7.90;;
65871;SDS011;52653;50.080;21.992;2024-01-30T04:56:37;14.40;;;8.10;;
65871;SDS011;52653;50.080;21.992;2024-01-30T04:59:09;11.80;;;8.60;;
65871;SDS011;52653;50.080;21.992;2024-01-30T05:01:43;14.10;;;8.90;;
65871;SDS011;52653;50.080;21.992;2024-01-30T05:04:18;14.70;;;8.80;;
65871;SDS011;52653;50.080;21.992;2024-01-30T05:06:51;13.50;;;8.60;;
65871;SDS011;52653;50.080;21.992;2024-01-30T05:09:24;13.30;;;9.40;;
65871;SDS011;52653;50.080;21.992;2024-01-30T05:11:56;14.20;;;8.50;;
65871;SDS011;52653;50.080;21.992;2024-01-30T05:14:28;13.70;;;8.90;;
65871;SDS011;52653;50.080;21.992;2024-01-30T05:17:01;15.90;;;9.30;;
65871;SDS011;52653;50.080;21.992;2024-01-30T05:19:34;16.30;;;9.20;;
65871;SDS011;52653;50.080;21.992;2024-01-30T05:22:06;15.20;;;9.00;;
65871;SDS011;52653;50.080;21.992;2024-01-30T05:24:39;13.80;;;8.90;;
65871;SDS011;52653;50.080;21.992;2024-01-30T05:27:12;15.30;;;9.20;;
65871;SDS011;52653;50.080;21.992;2024-01-30T05:29:45;14.50;;;9.90;;
65871;SDS011;52653;50.080;21.992;2024-01-30T05:32:18;14.70;;;9.10;;
65871;SDS011;52653;50.080;21.992;2024-01-30T05:34:50;14.60;;;9.40;;
65871;SDS011;52653;50.080;21.992;2024-01-30T05:37:23;13.30;;;8.80;;
65871;SDS011;52653;50.080;21.992;2024-01-30T05:39:56;14.60;;;9.40;;
65871;SDS011;52653;50.080;21.992;2024-01-30T05:42:31;16.50;;;9.70;;
65871;SDS011;52653;50.080;21.992;2024-01-30T05:45:04;14.60;;;9.00;;
65871;SDS011;52653;50.080;21.992;2024-01-30T05:47:37;13.70;;;8.90;;
65871;SDS011;52653;50.080;21.992;2024-01-30T05:50:10;14.20;;;9.40;;
65871;SDS011;52653;50.080;21.992;2024-01-30T05:52:43;13.80;;;8.50;;
65871;SDS011;52653;50.080;21.992;2024-01-30T05:55:15;14.40;;;8.90;;
65871;SDS011;52653;50.080;21.992;2024-01-30T05:57:48;15.60;;;8.90;;
65871;SDS011;52653;50.080;21.992;2024-01-30T06:00:24;16.00;;;9.30;;
65871;SDS011;52653;50.080;21.992;2024-01-30T06:02:57;14.70;;;9.60;;
65871;SDS011;52653;50.080;21.992;2024-01-30T06:05:30;15.00;;;9.80;;
65871;SDS011;52653;50.080;21.992;2024-01-30T06:08:03;14.10;;;8.70;;
65871;SDS011;52653;50.080;21.992;2024-01-30T06:10:37;13.80;;;9.00;;
65871;SDS011;52653;50.080;21.992;2024-01-30T06:13:11;14.00;;;8.30;;
65871;SDS011;52653;50.080;21.992;2024-01-30T06:15:44;12.70;;;8.40;;
65871;SDS011;52653;50.080;21.992;2024-01-30T06:18:16;14.00;;;8.80;;
65871;SDS011;52653;50.080;21.992;2024-01-30T06:20:50;13.20;;;8.30;;
65871;SDS011;52653;50.080;21.992;2024-01-30T06:23:22;14.20;;;8.50;;
65871;SDS011;52653;50.080;21.992;2024-01-30T06:25:54;14.60;;;7.80;;
65871;SDS011;52653;50.080;21.992;2024-01-30T06:28:30;13.00;;;8.40;;
65871;SDS011;52653;50.080;21.992;2024-01-30T06:31:04;13.40;;;7.70;;
65871;SDS011;52653;50.080;21.992;2024-01-30T06:33:37;10.50;;;7.10;;
65871;SDS011;52653;50.080;21.992;2024-01-30T06:36:12;12.00;;;7.70;;
65871;SDS011;52653;50.080;21.992;2024-01-30T06:38:45;12.50;;;7.70;;
65871;SDS011;52653;50.080;21.992;2024-01-30T06:41:18;12.20;;;7.80;;
65871;SDS011;52653;50.080;21.992;2024-01-30T06:43:51;13.40;;;7.80;;
65871;SDS011;52653;50.080;21.992;2024-01-30T06:46:24;12.50;;;7.70;;
65871;SDS011;52653;50.080;21.992;2024-01-30T06:48:57;13.60;;;8.20;;
65871;SDS011;52653;50.080;21.992;2024-01-30T06:51:33;12.70;;;7.60;;
65871;SDS011;52653;50.080;21.992;2024-01-30T06:54:13;12.30;;;7.80;;
65871;SDS011;52653;50.080;21.992;2024-01-30T06:57:06;13.40;;;8.20;;
65871;SDS011;52653;50.080;21.992;2024-01-30T06:59:43;12.00;;;7.20;;
65871;SDS011;52653;50.080;21.992;2024-01-30T07:02:26;13.40;;;7.40;;
65871;SDS011;52653;50.080;21.992;2024-01-30T07:05:19;12.90;;;7.40;;
65871;SDS011;52653;50.080;21.992;2024-01-30T07:08:13;13.30;;;8.80;;
65871;SDS011;52653;50.080;21.992;2024-01-30T07:11:02;12.40;;;7.20;;
65871;SDS011;52653;50.080;21.992;2024-01-30T07:13:52;13.20;;;7.50;;
65871;SDS011;52653;50.080;21.992;2024-01-30T07:16:25;13.80;;;7.50;;
65871;SDS011;52653;50.080;21.992;2024-01-30T07:19:01;12.90;;;7.60;;
65871;SDS011;52653;50.080;21.992;2024-01-30T07:21:41;12.80;;;6.90;;
65871;SDS011;52653;50.080;21.992;2024-01-30T07:24:14;11.80;;;7.00;;
65871;SDS011;52653;50.080;21.992;2024-01-30T07:26:47;10.90;;;6.60;;
65871;SDS011;52653;50.080;21.992;2024-01-30T07:29:32;10.60;;;6.80;;
65871;SDS011;52653;50.080;21.992;2024-01-30T07:32:26;11.30;;;6.90;;
65871;SDS011;52653;50.080;21.992;2024-01-30T07:35:05;11.10;;;6.80;;
65871;SDS011;52653;50.080;21.992;2024-01-30T07:37:45;11.20;;;6.50;;
65871;SDS011;52653;50.080;21.992;2024-01-30T07:40:25;12.10;;;7.00;;
65871;SDS011;52653;50.080;21.992;2024-01-30T07:43:17;11.50;;;6.90;;
65871;SDS011;52653;50.080;21.992;2024-01-30T07:46:12;12.90;;;6.80;;
65871;SDS011;52653;50.080;21.992;2024-01-30T07:48:49;10.40;;;6.20;;
65871;SDS011;52653;50.080;21.992;2024-01-30T07:51:24;10.00;;;6.70;;
65871;SDS011;52653;50.080;21.992;2024-01-30T07:54:04;11.90;;;7.00;;
65871;SDS011;52653;50.080;21.992;2024-01-30T07:56:50;11.70;;;6.70;;
65871;SDS011;52653;50.080;21.992;2024-01-30T07:59:28;10.00;;;6.10;;
65871;SDS011;52653;50.080;21.992;2024-01-30T08:02:13;12.40;;;6.30;;
65871;SDS011;52653;50.080;21.992;2024-01-30T08:04:57;10.80;;;6.40;;
65871;SDS011;52653;50.080;21.992;2024-01-30T08:07:51;10.60;;;6.10;;
65871;SDS011;52653;50.080;21.992;2024-01-30T08:10:33;11.40;;;6.20;;
65871;SDS011;52653;50.080;21.992;2024-01-30T08:13:16;11.00;;;5.40;;
65871;SDS011;52653;50.080;21.992;2024-01-30T08:16:03;9.80;;;6.50;;
65871;SDS011;52653;50.080;21.992;2024-01-30T08:18:58;10.90;;;5.70;;
65871;SDS011;52653;50.080;21.992;2024-01-30T08:21:51;10.20;;;5.50;;
65871;SDS011;52653;50.080;21.992;2024-01-30T08:24:28;11.40;;;6.40;;
65871;SDS011;52653;50.080;21.992;2024-01-30T08:27:00;11.80;;;6.70;;
65871;SDS011;52653;50.080;21.992;2024-01-30T08:29:38;11.60;;;6.60;;
65871;SDS011;52653;50.080;21.992;2024-01-30T08:32:11;11.30;;;6.90;;
65871;SDS011;52653;50.080;21.992;2024-01-30T08:34:44;12.30;;;6.90;;
65871;SDS011;52653;50.080;21.992;2024-01-30T08:37:17;10.90;;;6.10;;
65871;SDS011;52653;50.080;21.992;2024-01-30T08:39:52;10.60;;;6.10;;
65871;SDS011;52653;50.080;21.992;2024-01-30T08:42:28;10.50;;;6.30;;
65871;SDS011;52653;50.080;21.992;2024-01-30T08:45:01;12.00;;;6.20;;
65871;SDS011;52653;50.080;21.992;2024-01-30T08:47:35;11.90;;;6.30;;
65871;SDS011;52653;50.080;21.992;2024-01-30T08:50:10;11.60;;;6.30;;
65871;SDS011;52653;50.080;21.992;2024-01-30T08:52:45;9.20;;;5.70;;
65871;SDS011;52653;50.080;21.992;2024-01-30T08:55:18;10.60;;;5.80;;
65871;SDS011;52653;50.080;21.992;2024-01-30T08:57:54;10.80;;;5.70;;
65871;SDS011;52653;50.080;21.992;2024-01-30T09:00:27;9.50;;;5.20;;
65871;SDS011;52653;50.080;21.992;2024-01-30T09:03:04;9.30;;;5.50;;
65871;SDS011;52653;50.080;21.992;2024-01-30T09:05:39;9.00;;;5.70;;
65871;SDS011;52653;50.080;21.992;2024-01-30T09:08:12;9.70;;;5.50;;
65871;SDS011;52653;50.080;21.992;2024-01-30T09:10:49;8.60;;;5.30;;
65871;SDS011;52653;50.080;21.992;2024-01-30T09:13:26;9.80;;;5.10;;
65871;SDS011;52653;50.080;21.992;2024-01-30T09:15:59;7.80;;;4.80;;
65871;SDS011;52653;50.080;21.992;2024-01-30T09:18:31;10.40;;;5.40;;
65871;SDS011;52653;50.080;21.992;2024-01-30T09:21:06;10.90;;;5.30;;
65871;SDS011;52653;50.080;21.992;2024-01-30T09:23:43;8.10;;;5.00;;
65871;SDS011;52653;50.080;21.992;2024-01-30T09:26:16;9.50;;;5.20;;
65871;SDS011;52653;50.080;21.992;2024-01-30T09:28:49;9.50;;;5.10;;
65871;SDS011;52653;50.080;21.992;2024-01-30T09:31:22;9.60;;;5.30;;
65871;SDS011;52653;50.080;21.992;2024-01-30T09:33:57;8.50;;;4.80;;
65871;SDS011;52653;50.080;21.992;2024-01-30T09:36:30;10.00;;;5.40;;
65871;SDS011;52653;50.080;21.992;2024-01-30T09:39:10;8.70;;;5.30;;
65871;SDS011;52653;50.080;21.992;2024-01-30T09:41:55;10.20;;;5.80;;
65871;SDS011;52653;50.080;21.992;2024-01-30T09:44:48;9.10;;;5.10;;
65871;SDS011;52653;50.080;21.992;2024-01-30T09:47:25;8.70;;;5.30;;
65871;SDS011;52653;50.080;21.992;2024-01-30T09:49:58;8.30;;;5.00;;
65871;SDS011;52653;50.080;21.992;2024-01-30T09:52:37;9.50;;;5.30;;
65871;SDS011;52653;50.080;21.992;2024-01-30T09:55:10;9.10;;;5.20;;
65871;SDS011;52653;50.080;21.992;2024-01-30T09:57:45;9.30;;;4.90;;
65871;SDS011;52653;50.080;21.992;2024-01-30T10:00:18;8.40;;;5.00;;
65871;SDS011;52653;50.080;21.992;2024-01-30T10:02:56;9.20;;;5.50;;
65871;SDS011;52653;50.080;21.992;2024-01-30T10:05:37;9.20;;;4.80;;
65871;SDS011;52653;50.080;21.992;2024-01-30T10:08:16;8.30;;;4.50;;
65871;SDS011;52653;50.080;21.992;2024-01-30T10:10:49;9.10;;;5.10;;
65871;SDS011;52653;50.080;21.992;2024-01-30T10:13:24;8.50;;;5.00;;
65871;SDS011;52653;50.080;21.992;2024-01-30T10:15:59;9.10;;;4.90;;
65871;SDS011;52653;50.080;21.992;2024-01-30T10:18:35;10.20;;;4.90;;
65871;SDS011;52653;50.080;21.992;2024-01-30T10:21:12;7.60;;;4.70;;
65871;SDS011;52653;50.080;21.992;2024-01-30T10:23:44;8.50;;;4.80;;
65871;SDS011;52653;50.080;21.992;2024-01-30T10:26:17;8.20;;;4.90;;
65871;SDS011;52653;50.080;21.992;2024-01-30T10:28:49;9.00;;;5.20;;
65871;SDS011;52653;50.080;21.992;2024-01-30T10:31:24;8.10;;;4.70;;
65871;SDS011;52653;50.080;21.992;2024-01-30T10:34:04;8.90;;;4.70;;
65871;SDS011;52653;50.080;21.992;2024-01-30T10:36:54;7.90;;;4.60;;
65871;SDS011;52653;50.080;21.992;2024-01-30T10:39:36;8.70;;;5.10;;
65871;SDS011;52653;50.080;21.992;2024-01-30T10:42:12;8.40;;;4.70;;
65871;SDS011;52653;50.080;21.992;2024-01-30T10:44:52;7.80;;;4.40;;
65871;SDS011;52653;50.080;21.992;2024-01-30T10:47:36;7.90;;;4.90;;
65871;SDS011;52653;50.080;21.992;2024-01-30T10:50:16;8.60;;;4.60;;
65871;SDS011;52653;50.080;21.992;2024-01-30T10:52:56;8.70;;;5.10;;
65871;SDS011;52653;50.080;21.992;2024-01-30T10:55:51;9.50;;;4.60;;
65871;SDS011;52653;50.080;21.992;2024-01-30T10:58:26;7.90;;;4.60;;
65871;SDS011;52653;50.080;21.992;2024-01-30T11:01:00;8.40;;;4.90;;
65871;SDS011;52653;50.080;21.992;2024-01-30T11:03:41;8.00;;;4.60;;
65871;SDS011;52653;50.080;21.992;2024-01-30T11:06:18;8.40;;;4.70;;
65871;SDS011;52653;50.080;21.992;2024-01-30T11:09:03;8.60;;;4.50;;
65871;SDS011;52653;50.080;21.992;2024-01-30T11:11:51;8.90;;;5.40;;
65871;SDS011;52653;50.080;21.992;2024-01-30T11:14:31;8.60;;;5.20;;
65871;SDS011;52653;50.080;21.992;2024-01-30T11:17:04;9.20;;;5.10;;
65871;SDS011;52653;50.080;21.992;2024-01-30T11:19:37;9.40;;;5.00;;
65871;SDS011;52653;50.080;21.992;2024-01-30T11:22:12;9.20;;;5.40;;
65871;SDS011;52653;50.080;21.992;2024-01-30T11:24:48;8.00;;;4.90;;
65871;SDS011;52653;50.080;21.992;2024-01-30T11:27:21;8.50;;;4.90;;
65871;SDS011;52653;50.080;21.992;2024-01-30T11:29:55;9.10;;;5.10;;
65871;SDS011;52653;50.080;21.992;2024-01-30T11:32:36;9.30;;;5.00;;
65871;SDS011;52653;50.080;21.992;2024-01-30T11:35:09;8.80;;;5.20;;
65871;SDS011;52653;50.080;21.992;2024-01-30T11:37:43;8.90;;;5.10;;
65871;SDS011;52653;50.080;21.992;2024-01-30T11:40:23;9.50;;;5.50;;
65871;SDS011;52653;50.080;21.992;2024-01-30T11:42:59;8.40;;;4.80;;
65871;SDS011;52653;50.080;21.992;2024-01-30T11:45:35;8.60;;;5.10;;
65871;SDS011;52653;50.080;21.992;2024-01-30T11:48:10;9.40;;;5.30;;
65871;SDS011;52653;50.080;21.992;2024-01-30T11:50:44;10.20;;;5.70;;
65871;SDS011;52653;50.080;21.992;2024-01-30T11:53:20;8.80;;;5.10;;
65871;SDS011;52653;50.080;21.992;2024-01-30T11:55:54;10.10;;;5.20;;
65871;SDS011;52653;50.080;21.992;2024-01-30T11:58:27;9.10;;;5.60;;
65871;SDS011;52653;50.080;21.992;2024-01-30T12:00:59;10.10;;;5.20;;
65871;SDS011;52653;50.080;21.992;2024-01-30T12:03:32;9.40;;;5.10;;
65871;SDS011;52653;50.080;21.992;2024-01-30T12:06:08;10.80;;;6.00;;
65871;SDS011;52653;50.080;21.992;2024-01-30T12:08:41;9.90;;;6.20;;
65871;SDS011;52653;50.080;21.992;2024-01-30T12:11:13;10.20;;;5.20;;
65871;SDS011;52653;50.080;21.992;2024-01-30T12:13:48;9.00;;;5.80;;
65871;SDS011;52653;50.080;21.992;2024-01-30T12:16:21;9.60;;;5.80;;
65871;SDS011;52653;50.080;21.992;2024-01-30T12:19:00;9.20;;;5.10;;
65871;SDS011;52653;50.080;21.992;2024-01-30T12:21:33;8.70;;;5.30;;
65871;SDS011;52653;50.080;21.992;2024-01-30T12:24:06;9.50;;;5.90;;
65871;SDS011;52653;50.080;21.992;2024-01-30T12:26:41;8.40;;;5.00;;
65871;SDS011;52653;50.080;21.992;2024-01-30T12:29:14;12.70;;;4.80;;
65871;SDS011;52653;50.080;21.992;2024-01-30T12:31:47;8.30;;;4.80;;
65871;SDS011;52653;50.080;21.992;2024-01-30T12:34:24;9.80;;;5.60;;
65871;SDS011;52653;50.080;21.992;2024-01-30T12:37:03;8.90;;;5.50;;
65871;SDS011;52653;50.080;21.992;2024-01-30T12:39:38;8.80;;;5.30;;
65871;SDS011;52653;50.080;21.992;2024-01-30T12:42:11;9.60;;;5.80;;
65871;SDS011;52653;50.080;21.992;2024-01-30T12:44:45;11.40;;;5.80;;
65871;SDS011;52653;50.080;21.992;2024-01-30T12:47:29;9.60;;;5.80;;
65871;SDS011;52653;50.080;21.992;2024-01-30T12:50:02;9.30;;;6.10;;
65871;SDS011;52653;50.080;21.992;2024-01-30T12:52:44;9.80;;;6.40;;
65871;SDS011;52653;50.080;21.992;2024-01-30T12:55:18;10.00;;;6.30;;
65871;SDS011;52653;50.080;21.992;2024-01-30T12:57:58;11.30;;;6.20;;
65871;SDS011;52653;50.080;21.992;2024-01-30T13:00:30;11.10;;;6.70;;
65871;SDS011;52653;50.080;21.992;2024-01-30T13:03:04;9.60;;;6.00;;
65871;SDS011;52653;50.080;21.992;2024-01-30T13:05:38;8.90;;;5.90;;
65871;SDS011;52653;50.080;21.992;2024-01-30T13:08:10;9.40;;;5.70;;
65871;SDS011;52653;50.080;21.992;2024-01-30T13:11:00;11.60;;;7.10;;
65871;SDS011;52653;50.080;21.992;2024-01-30T13:13:52;10.40;;;5.90;;
65871;SDS011;52653;50.080;21.992;2024-01-30T13:16:34;10.60;;;6.20;;
65871;SDS011;52653;50.080;21.992;2024-01-30T13:19:16;13.20;;;6.80;;
65871;SDS011;52653;50.080;21.992;2024-01-30T13:21:59;10.80;;;6.50;;
65871;SDS011;52653;50.080;21.992;2024-01-30T13:24:35;10.40;;;6.50;;
65871;SDS011;52653;50.080;21.992;2024-01-30T13:27:11;11.20;;;6.70;;
65871;SDS011;52653;50.080;21.992;2024-01-30T13:29:57;9.60;;;6.10;;
65871;SDS011;52653;50.080;21.992;2024-01-30T13:32:32;10.60;;;6.40;;
65871;SDS011;52653;50.080;21.992;2024-01-30T13:35:25;10.40;;;6.30;;
65871;SDS011;52653;50.080;21.992;2024-01-30T13:38:18;12.10;;;7.10;;
65871;SDS011;52653;50.080;21.992;2024-01-30T13:41:11;15.50;;;8.40;;
65871;SDS011;52653;50.080;21.992;2024-01-30T13:43:57;14.60;;;9.30;;
65871;SDS011;52653;50.080;21.992;2024-01-30T13:46:35;15.40;;;10.70;;
65871;SDS011;52653;50.080;21.992;2024-01-30T13:49:28;19.50;;;12.80;;
65871;SDS011;52653;50.080;21.992;2024-01-30T13:52:10;14.30;;;8.90;;
65871;SDS011;52653;50.080;21.992;2024-01-30T13:54:55;12.50;;;7.90;;
65871;SDS011;52653;50.080;21.992;2024-01-30T13:57:48;14.00;;;10.30;;
65871;SDS011;52653;50.080;21.992;2024-01-30T14:00:34;12.80;;;8.20;;
65871;SDS011;52653;50.080;21.992;2024-01-30T14:03:12;14.30;;;10.00;;
65871;SDS011;52653;50.080;21.992;2024-01-30T14:05:45;16.50;;;13.50;;
65871;SDS011;52653;50.080;21.992;2024-01-30T14:08:18;18.20;;;14.10;;
65871;SDS011;52653;50.080;21.992;2024-01-30T14:10:53;13.10;;;9.20;;
65871;SDS011;52653;50.080;21.992;2024-01-30T14:13:26;14.40;;;9.50;;
65871;SDS011;52653;50.080;21.992;2024-01-30T14:16:00;11.30;;;8.30;;
65871;SDS011;52653;50.080;21.992;2024-01-30T14:18:35;13.50;;;9.00;;
65871;SDS011;52653;50.080;21.992;2024-01-30T14:21:08;13.60;;;8.30;;
65871;SDS011;52653;50.080;21.992;2024-01-30T14:23:44;14.10;;;9.40;;
65871;SDS011;52653;50.080;21.992;2024-01-30T14:26:18;14.70;;;9.10;;
65871;SDS011;52653;50.080;21.992;2024-01-30T14:28:51;14.00;;;8.30;;
65871;SDS011;52653;50.080;21.992;2024-01-30T14:31:25;12.50;;;8.10;;
65871;SDS011;52653;50.080;21.992;2024-01-30T14:33:57;13.40;;;8.00;;
65871;SDS011;52653;50.080;21.992;2024-01-30T14:36:30;12.60;;;8.00;;
65871;SDS011;52653;50.080;21.992;2024-01-30T14:39:03;14.90;;;8.30;;
65871;SDS011;52653;50.080;21.992;2024-01-30T14:41:37;11.50;;;7.80;;
65871;SDS011;52653;50.080;21.992;2024-01-30T14:44:12;14.10;;;7.50;;
65871;SDS011;52653;50.080;21.992;2024-01-30T14:46:45;11.90;;;7.40;;
65871;SDS011;52653;50.080;21.992;2024-01-30T14:49:18;11.90;;;7.40;;
65871;SDS011;52653;50.080;21.992;2024-01-30T14:51:51;12.20;;;8.00;;
65871;SDS011;52653;50.080;21.992;2024-01-30T14:54:23;12.30;;;7.70;;
65871;SDS011;52653;50.080;21.992;2024-01-30T14:56:56;13.20;;;8.00;;
65871;SDS011;52653;50.080;21.992;2024-01-30T14:59:30;11.70;;;7.80;;
65871;SDS011;52653;50.080;21.992;2024-01-30T15:02:04;12.90;;;7.60;;
65871;SDS011;52653;50.080;21.992;2024-01-30T15:04:37;11.90;;;7.60;;
65871;SDS011;52653;50.080;21.992;2024-01-30T15:07:09;13.00;;;8.10;;
65871;SDS011;52653;50.080;21.992;2024-01-30T15:09:53;16.10;;;9.00;;
65871;SDS011;52653;50.080;21.992;2024-01-30T15:12:26;14.70;;;8.40;;
65871;SDS011;52653;50.080;21.992;2024-01-30T15:15:00;14.90;;;8.80;;